sensor_id;sensor_type;location;lat;lon;timestamp;temperature;humidity
12123;DHT22;6125;59.628;17.852;2023-09-30T00:00:09;15.50;99.90
12123;DHT22;6125;59.628;17.852;2023-09-30T00:02:37;15.50;99.90
12123;DHT22;6125;59.628;17.852;2023-09-30T00:05:05;15.50;99.90
12123;DHT22;6125;59.628;17.852;2023-09-30T00:07:32;15.50;99.90
12123;DHT22;6125;59.628;17.852;2023-09-30T00:09:59;15.50;99.90
12123;DHT22;6125;59.628;17.852;2023-09-30T00:12:27;15.50;99.90
12123;DHT22;6125;59.628;17.852;2023-09-30T00:14:55;15.50;99.90
12123;DHT22;6125;59.628;17.852;2023-09-30T00:17:22;15.50;99.90
12123;DHT22;6125;59.628;17.852;2023-09-30T00:19:49;15.50;99.90
12123;DHT22;6125;59.628;17.852;2023-09-30T00:22:16;15.50;99.90
12123;DHT22;6125;59.628;17.852;2023-09-30T00:24:43;15.50;99.90
12123;DHT22;6125;59.628;17.852;2023-09-30T00:27:10;15.50;99.90
12123;DHT22;6125;59.628;17.852;2023-09-30T00:29:39;15.40;99.90
12123;DHT22;6125;59.628;17.852;2023-09-30T00:32:07;15.40;99.90
12123;DHT22;6125;59.628;17.852;2023-09-30T00:34:34;15.40;99.90
12123;DHT22;6125;59.628;17.852;2023-09-30T00:37:01;15.40;99.90
12123;DHT22;6125;59.628;17.852;2023-09-30T00:39:28;15.40;99.90
12123;DHT22;6125;59.628;17.852;2023-09-30T00:41:56;15.40;99.90
12123;DHT22;6125;59.628;17.852;2023-09-30T00:44:25;15.40;99.90
12123;DHT22;6125;59.628;17.852;2023-09-30T00:46:54;15.40;99.90
12123;DHT22;6125;59.628;17.852;2023-09-30T00:49:22;15.40;99.90
12123;DHT22;6125;59.628;17.852;2023-09-30T00:51:49;15.40;99.90
12123;DHT22;6125;59.628;17.852;2023-09-30T00:54:17;15.40;99.90
12123;DHT22;6125;59.628;17.852;2023-09-30T00:56:46;15.30;99.90
12123;DHT22;6125;59.628;17.852;2023-09-30T00:59:13;15.30;99.90
12123;DHT22;6125;59.628;17.852;2023-09-30T01:01:41;15.30;99.90
12123;DHT22;6125;59.628;17.852;2023-09-30T01:04:11;15.20;99.90
12123;DHT22;6125;59.628;17.852;2023-09-30T01:06:38;15.20;99.90
12123;DHT22;6125;59.628;17.852;2023-09-30T01:09:05;15.20;99.90
12123;DHT22;6125;59.628;17.852;2023-09-30T01:11:32;15.10;99.90
12123;DHT22;6125;59.628;17.852;2023-09-30T01:14:00;15.10;99.90
12123;DHT22;6125;59.628;17.852;2023-09-30T01:16:27;15.10;99.90
12123;DHT22;6125;59.628;17.852;2023-09-30T01:18:54;15.00;99.90
12123;DHT22;6125;59.628;17.852;2023-09-30T01:21:22;15.00;99.90
12123;DHT22;6125;59.628;17.852;2023-09-30T01:23:51;15.00;99.90
12123;DHT22;6125;59.628;17.852;2023-09-30T01:26:18;15.00;99.90
12123;DHT22;6125;59.628;17.852;2023-09-30T01:28:45;14.90;99.90
12123;DHT22;6125;59.628;17.852;2023-09-30T01:31:14;14.90;99.90
12123;DHT22;6125;59.628;17.852;2023-09-30T01:33:41;14.90;99.90
12123;DHT22;6125;59.628;17.852;2023-09-30T01:36:09;14.80;99.90
12123;DHT22;6125;59.628;17.852;2023-09-30T01:38:36;14.80;99.90
12123;DHT22;6125;59.628;17.852;2023-09-30T01:41:05;14.80;99.90
12123;DHT22;6125;59.628;17.852;2023-09-30T01:43:32;14.80;99.90
12123;DHT22;6125;59.628;17.852;2023-09-30T01:46:01;14.80;99.90
12123;DHT22;6125;59.628;17.852;2023-09-30T01:48:28;14.70;99.90
12123;DHT22;6125;59.628;17.852;2023-09-30T01:50:55;14.70;99.90
12123;DHT22;6125;59.628;17.852;2023-09-30T01:53:22;14.70;99.90
12123;DHT22;6125;59.628;17.852;2023-09-30T01:55:49;14.70;99.90
12123;DHT22;6125;59.628;17.852;2023-09-30T01:58:18;14.80;99.90
12123;DHT22;6125;59.628;17.852;2023-09-30T02:00:45;14.70;99.90
12123;DHT22;6125;59.628;17.852;2023-09-30T02:03:12;14.70;99.90
12123;DHT22;6125;59.628;17.852;2023-09-30T02:05:39;14.70;99.90
12123;DHT22;6125;59.628;17.852;2023-09-30T02:08:06;14.70;99.90
12123;DHT22;6125;59.628;17.852;2023-09-30T02:10:33;14.70;99.90
12123;DHT22;6125;59.628;17.852;2023-09-30T02:13:01;14.70;99.90
12123;DHT22;6125;59.628;17.852;2023-09-30T02:15:32;14.70;99.90
12123;DHT22;6125;59.628;17.852;2023-09-30T02:18:00;14.70;99.90
12123;DHT22;6125;59.628;17.852;2023-09-30T02:20:27;14.70;99.90
12123;DHT22;6125;59.628;17.852;2023-09-30T02:22:56;14.60;99.90
12123;DHT22;6125;59.628;17.852;2023-09-30T02:25:24;14.60;99.90
12123;DHT22;6125;59.628;17.852;2023-09-30T02:27:51;14.60;99.90
12123;DHT22;6125;59.628;17.852;2023-09-30T02:30:19;14.50;99.90
12123;DHT22;6125;59.628;17.852;2023-09-30T02:32:48;14.40;99.90
12123;DHT22;6125;59.628;17.852;2023-09-30T02:35:15;14.40;99.90
12123;DHT22;6125;59.628;17.852;2023-09-30T02:37:42;14.40;99.90
12123;DHT22;6125;59.628;17.852;2023-09-30T02:40:10;14.40;99.90
12123;DHT22;6125;59.628;17.852;2023-09-30T02:42:38;14.30;99.90
12123;DHT22;6125;59.628;17.852;2023-09-30T02:45:06;14.30;99.90
12123;DHT22;6125;59.628;17.852;2023-09-30T02:47:34;14.30;99.90
12123;DHT22;6125;59.628;17.852;2023-09-30T02:50:06;14.20;99.90
12123;DHT22;6125;59.628;17.852;2023-09-30T02:52:37;14.10;99.90
12123;DHT22;6125;59.628;17.852;2023-09-30T02:55:07;14.10;99.90
12123;DHT22;6125;59.628;17.852;2023-09-30T02:57:34;14.10;99.90
12123;DHT22;6125;59.628;17.852;2023-09-30T03:00:02;14.00;99.90
12123;DHT22;6125;59.628;17.852;2023-09-30T03:02:39;13.90;99.90
12123;DHT22;6125;59.628;17.852;2023-09-30T03:05:09;13.80;99.90
12123;DHT22;6125;59.628;17.852;2023-09-30T03:07:36;13.80;99.90
12123;DHT22;6125;59.628;17.852;2023-09-30T03:10:04;13.80;99.90
12123;DHT22;6125;59.628;17.852;2023-09-30T03:12:31;13.80;99.90
12123;DHT22;6125;59.628;17.852;2023-09-30T03:14:59;13.80;99.90
12123;DHT22;6125;59.628;17.852;2023-09-30T03:17:30;13.80;99.90
12123;DHT22;6125;59.628;17.852;2023-09-30T03:19:57;13.80;99.90
12123;DHT22;6125;59.628;17.852;2023-09-30T03:22:26;13.70;99.90
12123;DHT22;6125;59.628;17.852;2023-09-30T03:24:55;13.80;99.90
12123;DHT22;6125;59.628;17.852;2023-09-30T03:27:23;13.70;99.90
12123;DHT22;6125;59.628;17.852;2023-09-30T03:29:50;13.70;99.90
12123;DHT22;6125;59.628;17.852;2023-09-30T03:32:17;13.70;99.90
12123;DHT22;6125;59.628;17.852;2023-09-30T03:34:44;13.60;99.90
12123;DHT22;6125;59.628;17.852;2023-09-30T03:37:12;13.60;99.90
12123;DHT22;6125;59.628;17.852;2023-09-30T03:39:40;13.60;99.90
12123;DHT22;6125;59.628;17.852;2023-09-30T03:42:08;13.60;99.90
12123;DHT22;6125;59.628;17.852;2023-09-30T03:44:37;13.60;99.90
12123;DHT22;6125;59.628;17.852;2023-09-30T03:47:04;13.60;99.90
12123;DHT22;6125;59.628;17.852;2023-09-30T03:49:33;13.60;99.90
12123;DHT22;6125;59.628;17.852;2023-09-30T03:52:00;13.50;99.90
12123;DHT22;6125;59.628;17.852;2023-09-30T03:54:27;13.60;99.90
12123;DHT22;6125;59.628;17.852;2023-09-30T03:56:55;13.50;99.90
12123;DHT22;6125;59.628;17.852;2023-09-30T03:59:22;13.50;99.90
12123;DHT22;6125;59.628;17.852;2023-09-30T04:01:50;13.60;99.90
12123;DHT22;6125;59.628;17.852;2023-09-30T04:04:19;13.50;99.90
12123;DHT22;6125;59.628;17.852;2023-09-30T04:06:46;13.60;99.90
12123;DHT22;6125;59.628;17.852;2023-09-30T04:09:13;13.50;99.90
12123;DHT22;6125;59.628;17.852;2023-09-30T04:11:42;13.50;99.90
12123;DHT22;6125;59.628;17.852;2023-09-30T04:14:10;13.60;99.90
12123;DHT22;6125;59.628;17.852;2023-09-30T04:16:37;13.60;99.90
12123;DHT22;6125;59.628;17.852;2023-09-30T04:19:04;13.60;99.90
12123;DHT22;6125;59.628;17.852;2023-09-30T04:21:33;13.60;99.90
12123;DHT22;6125;59.628;17.852;2023-09-30T04:24:00;13.60;99.90
12123;DHT22;6125;59.628;17.852;2023-09-30T04:26:29;13.70;99.90
12123;DHT22;6125;59.628;17.852;2023-09-30T04:28:56;13.60;99.90
12123;DHT22;6125;59.628;17.852;2023-09-30T04:31:25;13.60;99.90
12123;DHT22;6125;59.628;17.852;2023-09-30T04:33:54;13.50;99.90
12123;DHT22;6125;59.628;17.852;2023-09-30T04:36:23;13.40;99.90
12123;DHT22;6125;59.628;17.852;2023-09-30T04:38:50;13.40;99.90
12123;DHT22;6125;59.628;17.852;2023-09-30T04:41:17;13.30;99.90
12123;DHT22;6125;59.628;17.852;2023-09-30T04:43:45;13.30;99.90
12123;DHT22;6125;59.628;17.852;2023-09-30T04:46:12;13.30;99.90
12123;DHT22;6125;59.628;17.852;2023-09-30T04:48:40;13.20;99.90
12123;DHT22;6125;59.628;17.852;2023-09-30T04:51:08;13.20;99.90
12123;DHT22;6125;59.628;17.852;2023-09-30T04:53:37;13.20;99.90
12123;DHT22;6125;59.628;17.852;2023-09-30T04:56:04;13.10;99.90
12123;DHT22;6125;59.628;17.852;2023-09-30T04:58:32;13.10;99.90
12123;DHT22;6125;59.628;17.852;2023-09-30T05:00:59;13.10;99.90
12123;DHT22;6125;59.628;17.852;2023-09-30T05:03:26;13.10;99.90
12123;DHT22;6125;59.628;17.852;2023-09-30T05:05:55;13.00;99.90
12123;DHT22;6125;59.628;17.852;2023-09-30T05:08:23;13.00;99.90
12123;DHT22;6125;59.628;17.852;2023-09-30T05:10:51;13.00;99.90
12123;DHT22;6125;59.628;17.852;2023-09-30T05:13:29;13.00;99.90
12123;DHT22;6125;59.628;17.852;2023-09-30T05:15:56;13.10;99.90
12123;DHT22;6125;59.628;17.852;2023-09-30T05:18:24;13.10;99.90
12123;DHT22;6125;59.628;17.852;2023-09-30T05:20:51;13.10;99.90
12123;DHT22;6125;59.628;17.852;2023-09-30T05:23:20;13.10;99.90
12123;DHT22;6125;59.628;17.852;2023-09-30T05:25:47;13.10;99.90
12123;DHT22;6125;59.628;17.852;2023-09-30T05:28:14;13.00;99.90
12123;DHT22;6125;59.628;17.852;2023-09-30T05:30:41;13.00;99.90
12123;DHT22;6125;59.628;17.852;2023-09-30T05:33:09;13.00;99.90
12123;DHT22;6125;59.628;17.852;2023-09-30T05:35:40;12.90;99.90
12123;DHT22;6125;59.628;17.852;2023-09-30T05:38:13;12.90;99.90
12123;DHT22;6125;59.628;17.852;2023-09-30T05:40:43;12.90;99.90
12123;DHT22;6125;59.628;17.852;2023-09-30T05:43:10;12.90;99.90
12123;DHT22;6125;59.628;17.852;2023-09-30T05:45:39;12.90;99.90
12123;DHT22;6125;59.628;17.852;2023-09-30T05:48:14;13.00;99.90
12123;DHT22;6125;59.628;17.852;2023-09-30T05:50:41;13.00;99.90
12123;DHT22;6125;59.628;17.852;2023-09-30T05:53:09;13.10;99.90
12123;DHT22;6125;59.628;17.852;2023-09-30T05:55:37;13.10;99.90
12123;DHT22;6125;59.628;17.852;2023-09-30T05:58:09;13.20;99.90
12123;DHT22;6125;59.628;17.852;2023-09-30T06:00:39;13.20;99.90
12123;DHT22;6125;59.628;17.852;2023-09-30T06:03:08;13.10;99.90
12123;DHT22;6125;59.628;17.852;2023-09-30T06:05:39;13.20;99.90
12123;DHT22;6125;59.628;17.852;2023-09-30T06:08:08;13.10;99.90
12123;DHT22;6125;59.628;17.852;2023-09-30T06:10:36;13.10;99.90
12123;DHT22;6125;59.628;17.852;2023-09-30T06:13:10;13.10;99.90
12123;DHT22;6125;59.628;17.852;2023-09-30T06:15:37;13.10;99.90
12123;DHT22;6125;59.628;17.852;2023-09-30T06:18:12;13.10;99.90
12123;DHT22;6125;59.628;17.852;2023-09-30T06:20:40;13.10;99.90
12123;DHT22;6125;59.628;17.852;2023-09-30T06:23:07;13.20;99.90
12123;DHT22;6125;59.628;17.852;2023-09-30T06:25:35;13.20;99.90
12123;DHT22;6125;59.628;17.852;2023-09-30T06:28:03;13.30;99.90
12123;DHT22;6125;59.628;17.852;2023-09-30T06:30:31;13.30;99.90
12123;DHT22;6125;59.628;17.852;2023-09-30T06:32:59;13.40;99.90
12123;DHT22;6125;59.628;17.852;2023-09-30T06:35:26;13.40;99.90
12123;DHT22;6125;59.628;17.852;2023-09-30T06:37:55;13.50;99.90
12123;DHT22;6125;59.628;17.852;2023-09-30T06:40:22;13.60;99.90
12123;DHT22;6125;59.628;17.852;2023-09-30T06:42:50;13.60;99.90
12123;DHT22;6125;59.628;17.852;2023-09-30T06:45:17;13.70;99.90
12123;DHT22;6125;59.628;17.852;2023-09-30T06:47:46;13.70;99.90
12123;DHT22;6125;59.628;17.852;2023-09-30T06:50:14;13.70;99.90
12123;DHT22;6125;59.628;17.852;2023-09-30T06:52:43;13.80;99.90
12123;DHT22;6125;59.628;17.852;2023-09-30T06:55:11;13.70;99.90
12123;DHT22;6125;59.628;17.852;2023-09-30T06:57:42;13.80;99.90
12123;DHT22;6125;59.628;17.852;2023-09-30T07:00:11;13.80;99.90
12123;DHT22;6125;59.628;17.852;2023-09-30T07:02:39;13.80;99.90
12123;DHT22;6125;59.628;17.852;2023-09-30T07:05:09;13.80;99.90
12123;DHT22;6125;59.628;17.852;2023-09-30T07:07:37;13.80;99.90
12123;DHT22;6125;59.628;17.852;2023-09-30T07:10:06;13.90;99.90
12123;DHT22;6125;59.628;17.852;2023-09-30T07:12:33;13.90;99.90
12123;DHT22;6125;59.628;17.852;2023-09-30T07:15:01;14.00;99.90
12123;DHT22;6125;59.628;17.852;2023-09-30T07:17:29;14.10;99.90
12123;DHT22;6125;59.628;17.852;2023-09-30T07:19:56;14.10;99.90
12123;DHT22;6125;59.628;17.852;2023-09-30T07:22:24;14.20;99.90
12123;DHT22;6125;59.628;17.852;2023-09-30T07:24:51;14.30;99.90
12123;DHT22;6125;59.628;17.852;2023-09-30T07:27:19;14.30;99.90
12123;DHT22;6125;59.628;17.852;2023-09-30T07:29:46;14.30;99.90
12123;DHT22;6125;59.628;17.852;2023-09-30T07:32:13;14.40;99.90
12123;DHT22;6125;59.628;17.852;2023-09-30T07:34:41;14.50;99.90
12123;DHT22;6125;59.628;17.852;2023-09-30T07:37:08;14.50;99.90
12123;DHT22;6125;59.628;17.852;2023-09-30T07:39:36;14.50;99.90
12123;DHT22;6125;59.628;17.852;2023-09-30T07:42:04;14.50;99.90
12123;DHT22;6125;59.628;17.852;2023-09-30T07:44:31;14.50;99.90
12123;DHT22;6125;59.628;17.852;2023-09-30T07:46:58;14.50;99.90
12123;DHT22;6125;59.628;17.852;2023-09-30T07:49:25;14.50;99.90
12123;DHT22;6125;59.628;17.852;2023-09-30T07:51:53;14.50;99.90
12123;DHT22;6125;59.628;17.852;2023-09-30T07:54:20;14.50;99.90
12123;DHT22;6125;59.628;17.852;2023-09-30T07:56:49;14.50;99.90
12123;DHT22;6125;59.628;17.852;2023-09-30T07:59:16;14.50;99.90
12123;DHT22;6125;59.628;17.852;2023-09-30T08:01:43;14.40;99.90
12123;DHT22;6125;59.628;17.852;2023-09-30T08:04:10;14.50;99.90
12123;DHT22;6125;59.628;17.852;2023-09-30T08:06:37;14.60;99.90
12123;DHT22;6125;59.628;17.852;2023-09-30T08:09:05;14.70;99.90
12123;DHT22;6125;59.628;17.852;2023-09-30T08:11:35;14.80;99.90
12123;DHT22;6125;59.628;17.852;2023-09-30T08:14:04;14.80;99.90
12123;DHT22;6125;59.628;17.852;2023-09-30T08:16:32;14.80;99.90
12123;DHT22;6125;59.628;17.852;2023-09-30T08:18:59;14.80;99.90
12123;DHT22;6125;59.628;17.852;2023-09-30T08:21:27;14.80;99.90
12123;DHT22;6125;59.628;17.852;2023-09-30T08:23:54;14.80;99.90
12123;DHT22;6125;59.628;17.852;2023-09-30T08:26:21;14.80;99.90
12123;DHT22;6125;59.628;17.852;2023-09-30T08:28:48;14.80;99.90
12123;DHT22;6125;59.628;17.852;2023-09-30T08:31:19;14.80;99.90
12123;DHT22;6125;59.628;17.852;2023-09-30T08:33:47;14.90;99.90
12123;DHT22;6125;59.628;17.852;2023-09-30T08:36:14;14.90;99.90
12123;DHT22;6125;59.628;17.852;2023-09-30T08:38:41;15.00;99.90
12123;DHT22;6125;59.628;17.852;2023-09-30T08:41:09;15.10;99.90
12123;DHT22;6125;59.628;17.852;2023-09-30T08:43:38;15.10;99.90
12123;DHT22;6125;59.628;17.852;2023-09-30T08:46:06;15.20;99.90
12123;DHT22;6125;59.628;17.852;2023-09-30T08:48:35;15.20;99.90
12123;DHT22;6125;59.628;17.852;2023-09-30T08:51:02;15.30;99.90
12123;DHT22;6125;59.628;17.852;2023-09-30T08:53:30;15.30;99.90
12123;DHT22;6125;59.628;17.852;2023-09-30T08:55:58;15.30;99.90
12123;DHT22;6125;59.628;17.852;2023-09-30T08:58:28;15.30;99.90
12123;DHT22;6125;59.628;17.852;2023-09-30T09:00:55;15.20;99.90
12123;DHT22;6125;59.628;17.852;2023-09-30T09:03:23;15.20;99.90
12123;DHT22;6125;59.628;17.852;2023-09-30T09:05:56;15.40;99.90
12123;DHT22;6125;59.628;17.852;2023-09-30T09:08:26;15.50;99.90
12123;DHT22;6125;59.628;17.852;2023-09-30T09:10:58;15.60;99.90
12123;DHT22;6125;59.628;17.852;2023-09-30T09:13:26;15.70;99.90
12123;DHT22;6125;59.628;17.852;2023-09-30T09:16:06;15.70;99.90
12123;DHT22;6125;59.628;17.852;2023-09-30T09:18:34;15.70;99.90
12123;DHT22;6125;59.628;17.852;2023-09-30T09:21:10;15.70;99.90
12123;DHT22;6125;59.628;17.852;2023-09-30T09:23:42;15.70;99.90
12123;DHT22;6125;59.628;17.852;2023-09-30T09:26:10;15.70;99.90
12123;DHT22;6125;59.628;17.852;2023-09-30T09:28:37;15.60;99.90
12123;DHT22;6125;59.628;17.852;2023-09-30T09:31:22;15.60;99.90
12123;DHT22;6125;59.628;17.852;2023-09-30T09:33:50;15.60;99.90
12123;DHT22;6125;59.628;17.852;2023-09-30T09:36:18;15.50;99.90
12123;DHT22;6125;59.628;17.852;2023-09-30T09:38:48;15.50;99.90
12123;DHT22;6125;59.628;17.852;2023-09-30T09:41:16;15.60;99.90
12123;DHT22;6125;59.628;17.852;2023-09-30T09:43:43;15.70;99.90
12123;DHT22;6125;59.628;17.852;2023-09-30T09:46:11;15.90;99.90
12123;DHT22;6125;59.628;17.852;2023-09-30T09:48:39;16.00;99.90
12123;DHT22;6125;59.628;17.852;2023-09-30T09:51:09;16.10;99.90
12123;DHT22;6125;59.628;17.852;2023-09-30T09:53:41;16.20;99.90
12123;DHT22;6125;59.628;17.852;2023-09-30T09:56:09;16.20;99.90
12123;DHT22;6125;59.628;17.852;2023-09-30T09:58:39;16.20;99.90
12123;DHT22;6125;59.628;17.852;2023-09-30T10:01:09;16.20;99.90
12123;DHT22;6125;59.628;17.852;2023-09-30T10:03:38;16.20;99.90
12123;DHT22;6125;59.628;17.852;2023-09-30T10:06:05;16.20;99.90
12123;DHT22;6125;59.628;17.852;2023-09-30T10:08:39;16.30;99.90
12123;DHT22;6125;59.628;17.852;2023-09-30T10:11:08;16.40;99.90
12123;DHT22;6125;59.628;17.852;2023-09-30T10:13:54;16.40;99.90
12123;DHT22;6125;59.628;17.852;2023-09-30T10:16:47;16.40;99.90
12123;DHT22;6125;59.628;17.852;2023-09-30T10:19:17;16.40;99.90
12123;DHT22;6125;59.628;17.852;2023-09-30T10:24:51;16.30;99.90
12123;DHT22;6125;59.628;17.852;2023-09-30T10:27:33;16.30;99.90
12123;DHT22;6125;59.628;17.852;2023-09-30T10:30:09;16.20;99.90
12123;DHT22;6125;59.628;17.852;2023-09-30T10:33:07;16.20;99.90
12123;DHT22;6125;59.628;17.852;2023-09-30T10:35:46;16.10;99.90
12123;DHT22;6125;59.628;17.852;2023-09-30T10:38:38;16.10;99.90
12123;DHT22;6125;59.628;17.852;2023-09-30T10:41:10;16.10;99.90
12123;DHT22;6125;59.628;17.852;2023-09-30T10:44:33;16.10;99.90
12123;DHT22;6125;59.628;17.852;2023-09-30T10:47:00;16.30;99.90
12123;DHT22;6125;59.628;17.852;2023-09-30T10:49:47;16.60;99.90
12123;DHT22;6125;59.628;17.852;2023-09-30T10:52:21;16.80;99.90
12123;DHT22;6125;59.628;17.852;2023-09-30T10:54:49;16.90;99.90
12123;DHT22;6125;59.628;17.852;2023-09-30T10:57:28;17.00;99.90
12123;DHT22;6125;59.628;17.852;2023-09-30T11:00:07;17.10;99.90
12123;DHT22;6125;59.628;17.852;2023-09-30T11:02:48;17.20;99.90
12123;DHT22;6125;59.628;17.852;2023-09-30T11:05:17;17.20;99.90
12123;DHT22;6125;59.628;17.852;2023-09-30T11:07:46;17.20;99.90
12123;DHT22;6125;59.628;17.852;2023-09-30T11:10:16;17.20;99.90
12123;DHT22;6125;59.628;17.852;2023-09-30T11:12:55;17.30;99.90
12123;DHT22;6125;59.628;17.852;2023-09-30T11:15:23;17.40;99.90
12123;DHT22;6125;59.628;17.852;2023-09-30T11:17:51;17.50;99.90
12123;DHT22;6125;59.628;17.852;2023-09-30T11:20:18;17.50;99.90
12123;DHT22;6125;59.628;17.852;2023-09-30T11:22:47;17.40;99.90
12123;DHT22;6125;59.628;17.852;2023-09-30T11:25:18;17.30;99.90
12123;DHT22;6125;59.628;17.852;2023-09-30T11:27:45;17.20;99.90
12123;DHT22;6125;59.628;17.852;2023-09-30T11:30:14;17.10;99.90
12123;DHT22;6125;59.628;17.852;2023-09-30T11:32:42;17.10;99.90
12123;DHT22;6125;59.628;17.852;2023-09-30T11:35:10;17.00;99.90
12123;DHT22;6125;59.628;17.852;2023-09-30T11:37:48;17.00;99.90
12123;DHT22;6125;59.628;17.852;2023-09-30T11:40:16;17.00;99.90
12123;DHT22;6125;59.628;17.852;2023-09-30T11:43:07;17.10;99.90
12123;DHT22;6125;59.628;17.852;2023-09-30T11:45:35;17.30;99.90
12123;DHT22;6125;59.628;17.852;2023-09-30T11:48:17;17.40;99.90
12123;DHT22;6125;59.628;17.852;2023-09-30T11:50:46;17.50;99.90
12123;DHT22;6125;59.628;17.852;2023-09-30T11:53:16;17.40;99.90
12123;DHT22;6125;59.628;17.852;2023-09-30T11:55:43;17.10;99.90
12123;DHT22;6125;59.628;17.852;2023-09-30T11:58:11;16.90;99.90
12123;DHT22;6125;59.628;17.852;2023-09-30T12:00:45;16.60;99.90
12123;DHT22;6125;59.628;17.852;2023-09-30T12:03:13;16.40;99.90
12123;DHT22;6125;59.628;17.852;2023-09-30T12:05:40;16.30;99.90
12123;DHT22;6125;59.628;17.852;2023-09-30T12:08:07;16.20;99.90
12123;DHT22;6125;59.628;17.852;2023-09-30T12:10:34;16.10;99.90
12123;DHT22;6125;59.628;17.852;2023-09-30T12:13:01;16.10;99.90
12123;DHT22;6125;59.628;17.852;2023-09-30T12:15:28;16.10;99.90
12123;DHT22;6125;59.628;17.852;2023-09-30T12:17:57;16.10;99.90
12123;DHT22;6125;59.628;17.852;2023-09-30T12:20:24;16.20;99.90
12123;DHT22;6125;59.628;17.852;2023-09-30T12:22:51;16.30;99.90
12123;DHT22;6125;59.628;17.852;2023-09-30T12:25:20;16.50;99.90
12123;DHT22;6125;59.628;17.852;2023-09-30T12:27:47;16.60;99.90
12123;DHT22;6125;59.628;17.852;2023-09-30T12:30:15;16.70;99.90
12123;DHT22;6125;59.628;17.852;2023-09-30T12:32:42;16.80;99.90
12123;DHT22;6125;59.628;17.852;2023-09-30T12:35:11;16.90;99.90
12123;DHT22;6125;59.628;17.852;2023-09-30T12:37:38;17.00;99.90
12123;DHT22;6125;59.628;17.852;2023-09-30T12:40:06;17.10;99.90
12123;DHT22;6125;59.628;17.852;2023-09-30T12:42:33;17.30;99.90
12123;DHT22;6125;59.628;17.852;2023-09-30T12:45:01;17.50;99.90
12123;DHT22;6125;59.628;17.852;2023-09-30T12:47:28;17.80;99.90
12123;DHT22;6125;59.628;17.852;2023-09-30T12:49:55;18.20;99.90
12123;DHT22;6125;59.628;17.852;2023-09-30T12:52:24;18.60;99.90
12123;DHT22;6125;59.628;17.852;2023-09-30T12:54:51;18.80;99.90
12123;DHT22;6125;59.628;17.852;2023-09-30T12:57:19;18.70;99.90
12123;DHT22;6125;59.628;17.852;2023-09-30T12:59:46;18.50;99.90
12123;DHT22;6125;59.628;17.852;2023-09-30T13:02:15;18.40;99.90
12123;DHT22;6125;59.628;17.852;2023-09-30T13:04:44;18.20;99.90
12123;DHT22;6125;59.628;17.852;2023-09-30T13:07:11;18.10;99.90
12123;DHT22;6125;59.628;17.852;2023-09-30T13:09:40;18.00;99.90
12123;DHT22;6125;59.628;17.852;2023-09-30T13:12:07;17.70;99.90
12123;DHT22;6125;59.628;17.852;2023-09-30T13:14:35;17.50;99.90
12123;DHT22;6125;59.628;17.852;2023-09-30T13:17:02;17.40;99.90
12123;DHT22;6125;59.628;17.852;2023-09-30T13:19:29;17.30;99.90
12123;DHT22;6125;59.628;17.852;2023-09-30T13:21:58;17.20;99.90
12123;DHT22;6125;59.628;17.852;2023-09-30T13:24:26;17.30;99.90
12123;DHT22;6125;59.628;17.852;2023-09-30T13:26:55;17.40;99.90
12123;DHT22;6125;59.628;17.852;2023-09-30T13:29:22;17.50;99.90
12123;DHT22;6125;59.628;17.852;2023-09-30T13:31:49;17.70;99.90
12123;DHT22;6125;59.628;17.852;2023-09-30T13:34:16;17.90;99.90
12123;DHT22;6125;59.628;17.852;2023-09-30T13:36:43;18.10;99.90
12123;DHT22;6125;59.628;17.852;2023-09-30T13:39:10;18.10;99.90
12123;DHT22;6125;59.628;17.852;2023-09-30T13:41:39;18.10;99.90
12123;DHT22;6125;59.628;17.852;2023-09-30T13:44:08;18.10;99.90
12123;DHT22;6125;59.628;17.852;2023-09-30T13:46:36;18.20;99.90
12123;DHT22;6125;59.628;17.852;2023-09-30T13:49:03;18.40;99.90
12123;DHT22;6125;59.628;17.852;2023-09-30T13:51:30;18.50;99.90
12123;DHT22;6125;59.628;17.852;2023-09-30T13:53:57;18.40;99.90
12123;DHT22;6125;59.628;17.852;2023-09-30T13:56:25;18.30;99.90
12123;DHT22;6125;59.628;17.852;2023-09-30T13:58:53;18.30;99.90
12123;DHT22;6125;59.628;17.852;2023-09-30T14:01:21;18.20;99.90
12123;DHT22;6125;59.628;17.852;2023-09-30T14:03:49;18.10;99.90
12123;DHT22;6125;59.628;17.852;2023-09-30T14:06:20;18.00;99.90
12123;DHT22;6125;59.628;17.852;2023-09-30T14:08:48;18.00;99.90
12123;DHT22;6125;59.628;17.852;2023-09-30T14:11:15;17.80;99.90
12123;DHT22;6125;59.628;17.852;2023-09-30T14:13:42;17.70;99.90
12123;DHT22;6125;59.628;17.852;2023-09-30T14:16:09;17.50;99.90
12123;DHT22;6125;59.628;17.852;2023-09-30T14:18:38;17.40;99.90
12123;DHT22;6125;59.628;17.852;2023-09-30T14:21:05;17.20;99.90
12123;DHT22;6125;59.628;17.852;2023-09-30T14:23:32;17.10;99.90
12123;DHT22;6125;59.628;17.852;2023-09-30T14:26:00;17.00;99.90
12123;DHT22;6125;59.628;17.852;2023-09-30T14:28:30;16.90;99.90
12123;DHT22;6125;59.628;17.852;2023-09-30T14:30:57;16.90;99.90
12123;DHT22;6125;59.628;17.852;2023-09-30T14:33:24;16.90;99.90
12123;DHT22;6125;59.628;17.852;2023-09-30T14:35:53;16.90;99.90
12123;DHT22;6125;59.628;17.852;2023-09-30T14:38:20;16.90;99.90
12123;DHT22;6125;59.628;17.852;2023-09-30T14:40:47;17.00;99.90
12123;DHT22;6125;59.628;17.852;2023-09-30T14:43:14;17.20;99.90
12123;DHT22;6125;59.628;17.852;2023-09-30T14:45:41;17.40;99.90
12123;DHT22;6125;59.628;17.852;2023-09-30T14:48:09;17.50;99.90
12123;DHT22;6125;59.628;17.852;2023-09-30T14:50:36;17.50;99.90
12123;DHT22;6125;59.628;17.852;2023-09-30T14:53:05;17.50;99.90
12123;DHT22;6125;59.628;17.852;2023-09-30T14:55:32;17.50;99.90
12123;DHT22;6125;59.628;17.852;2023-09-30T14:57:59;17.50;99.90
12123;DHT22;6125;59.628;17.852;2023-09-30T15:00:26;17.50;99.90
12123;DHT22;6125;59.628;17.852;2023-09-30T15:02:53;17.50;99.90
12123;DHT22;6125;59.628;17.852;2023-09-30T15:05:21;17.60;99.90
12123;DHT22;6125;59.628;17.852;2023-09-30T15:07:49;17.60;99.90
12123;DHT22;6125;59.628;17.852;2023-09-30T15:10:18;17.50;99.90
12123;DHT22;6125;59.628;17.852;2023-09-30T15:12:45;17.40;99.90
12123;DHT22;6125;59.628;17.852;2023-09-30T15:15:12;17.30;99.90
12123;DHT22;6125;59.628;17.852;2023-09-30T15:17:40;17.20;99.90
12123;DHT22;6125;59.628;17.852;2023-09-30T15:20:08;17.10;99.90
12123;DHT22;6125;59.628;17.852;2023-09-30T15:22:35;17.00;99.90
12123;DHT22;6125;59.628;17.852;2023-09-30T15:25:03;16.90;99.90
12123;DHT22;6125;59.628;17.852;2023-09-30T15:27:32;16.80;99.90
12123;DHT22;6125;59.628;17.852;2023-09-30T15:29:59;16.70;99.90
12123;DHT22;6125;59.628;17.852;2023-09-30T15:32:26;16.70;99.90
12123;DHT22;6125;59.628;17.852;2023-09-30T15:34:53;16.60;99.90
12123;DHT22;6125;59.628;17.852;2023-09-30T15:37:20;16.60;99.90
12123;DHT22;6125;59.628;17.852;2023-09-30T15:39:47;16.50;99.90
12123;DHT22;6125;59.628;17.852;2023-09-30T15:42:15;16.50;99.90